sensor_id;sensor_type;location;lat;lon;timestamp;pressure;altitude;pressure_sealevel;temperature;humidity
74334;BME280;62753;40.394;-80.022;2023-04-06T00:01:52;96989.73;;;31.51;20.47
74334;BME280;62753;40.394;-80.022;2023-04-06T00:04:17;96983.41;;;31.73;20.39
74334;BME280;62753;40.394;-80.022;2023-04-06T00:06:43;96993.22;;;31.83;20.16
74334;BME280;62753;40.394;-80.022;2023-04-06T00:09:08;96999.57;;;31.55;21.05
74334;BME280;62753;40.394;-80.022;2023-04-06T00:11:33;97002.19;;;32.16;20.15
74334;BME280;62753;40.394;-80.022;2023-04-06T00:13:58;97003.85;;;31.34;20.82
74334;BME280;62753;40.394;-80.022;2023-04-06T00:16:23;97009.29;;;32.25;20.53
74334;BME280;62753;40.394;-80.022;2023-04-06T00:18:48;97018.22;;;32.31;19.95
74334;BME280;62753;40.394;-80.022;2023-04-06T00:21:14;97029.29;;;31.75;20.70
74334;BME280;62753;40.394;-80.022;2023-04-06T00:23:38;97092.18;;;31.05;21.42
74334;BME280;62753;40.394;-80.022;2023-04-06T00:26:04;97138.97;;;28.30;30.82
74334;BME280;62753;40.394;-80.022;2023-04-06T00:28:29;97161.97;;;24.16;45.05
74334;BME280;62753;40.394;-80.022;2023-04-06T00:30:54;97195.70;;;23.48;48.41
74334;BME280;62753;40.394;-80.022;2023-04-06T00:33:21;97215.19;;;22.36;52.06
74334;BME280;62753;40.394;-80.022;2023-04-06T00:35:45;97244.51;;;22.67;53.38
74334;BME280;62753;40.394;-80.022;2023-04-06T00:38:12;97270.19;;;22.01;54.45
74334;BME280;62753;40.394;-80.022;2023-04-06T00:40:37;97295.90;;;21.89;56.82
74334;BME280;62753;40.394;-80.022;2023-04-06T00:43:02;97322.57;;;21.19;58.93
74334;BME280;62753;40.394;-80.022;2023-04-06T00:45:28;97343.51;;;21.04;59.16
74334;BME280;62753;40.394;-80.022;2023-04-06T00:47:53;97340.89;;;21.41;59.19
74334;BME280;62753;40.394;-80.022;2023-04-06T00:50:20;97362.82;;;21.37;58.21
74334;BME280;62753;40.394;-80.022;2023-04-06T00:52:45;97367.70;;;21.78;56.96
74334;BME280;62753;40.394;-80.022;2023-04-06T00:55:10;97395.25;;;22.03;56.37
74334;BME280;62753;40.394;-80.022;2023-04-06T00:57:36;97403.44;;;22.13;55.10
74334;BME280;62753;40.394;-80.022;2023-04-06T01:00:01;97413.73;;;21.68;55.57
74334;BME280;62753;40.394;-80.022;2023-04-06T01:02:26;97429.78;;;21.83;56.31
74334;BME280;62753;40.394;-80.022;2023-04-06T01:04:52;97447.58;;;22.48;54.63
74334;BME280;62753;40.394;-80.022;2023-04-06T01:07:17;97451.80;;;22.03;54.22
74334;BME280;62753;40.394;-80.022;2023-04-06T01:09:43;97463.98;;;22.06;53.93
74334;BME280;62753;40.394;-80.022;2023-04-06T01:12:09;97479.96;;;21.67;54.39
74334;BME280;62753;40.394;-80.022;2023-04-06T01:14:34;97498.67;;;21.14;55.25
74334;BME280;62753;40.394;-80.022;2023-04-06T01:17:00;97510.82;;;20.97;55.21
74334;BME280;62753;40.394;-80.022;2023-04-06T01:19:25;97519.71;;;21.17;55.45
74334;BME280;62753;40.394;-80.022;2023-04-06T01:21:50;97529.12;;;21.89;52.93
74334;BME280;62753;40.394;-80.022;2023-04-06T01:24:15;97539.84;;;21.43;53.02
74334;BME280;62753;40.394;-80.022;2023-04-06T01:26:41;97546.35;;;21.90;51.02
74334;BME280;62753;40.394;-80.022;2023-04-06T01:29:06;97543.68;;;22.58;49.05
74334;BME280;62753;40.394;-80.022;2023-04-06T01:31:32;97550.79;;;22.89;47.71
74334;BME280;62753;40.394;-80.022;2023-04-06T01:33:57;97550.98;;;22.56;47.32
74334;BME280;62753;40.394;-80.022;2023-04-06T01:36:22;97557.14;;;22.57;46.48
74334;BME280;62753;40.394;-80.022;2023-04-06T01:38:47;97575.90;;;21.96;45.99
74334;BME280;62753;40.394;-80.022;2023-04-06T01:41:13;97589.46;;;22.14;46.22
74334;BME280;62753;40.394;-80.022;2023-04-06T01:43:38;97596.12;;;21.83;46.39
74334;BME280;62753;40.394;-80.022;2023-04-06T01:46:03;97582.28;;;21.81;46.18
74334;BME280;62753;40.394;-80.022;2023-04-06T01:48:28;97575.74;;;21.24;46.82
74334;BME280;62753;40.394;-80.022;2023-04-06T01:50:54;97590.85;;;21.71;46.11
74334;BME280;62753;40.394;-80.022;2023-04-06T01:53:19;97605.42;;;21.58;46.12
74334;BME280;62753;40.394;-80.022;2023-04-06T01:55:44;97609.54;;;21.73;46.96
74334;BME280;62753;40.394;-80.022;2023-04-06T01:58:09;97609.89;;;21.73;46.85
74334;BME280;62753;40.394;-80.022;2023-04-06T02:00:35;97597.09;;;21.97;46.34
74334;BME280;62753;40.394;-80.022;2023-04-06T02:03:00;97590.27;;;22.03;45.19
74334;BME280;62753;40.394;-80.022;2023-04-06T02:05:25;97597.70;;;21.97;45.49
74334;BME280;62753;40.394;-80.022;2023-04-06T02:07:50;97600.36;;;22.04;45.25
74334;BME280;62753;40.394;-80.022;2023-04-06T02:10:16;97593.73;;;22.59;44.48
74334;BME280;62753;40.394;-80.022;2023-04-06T02:12:41;97577.03;;;22.40;45.03
74334;BME280;62753;40.394;-80.022;2023-04-06T02:15:07;97566.93;;;22.58;44.93
74334;BME280;62753;40.394;-80.022;2023-04-06T02:17:31;97557.99;;;22.99;43.66
74334;BME280;62753;40.394;-80.022;2023-04-06T02:19:57;97558.60;;;23.23;42.91
74334;BME280;62753;40.394;-80.022;2023-04-06T02:22:22;97556.22;;;23.42;42.36
74334;BME280;62753;40.394;-80.022;2023-04-06T02:24:47;97559.52;;;23.67;41.13
74334;BME280;62753;40.394;-80.022;2023-04-06T02:27:13;97577.99;;;23.29;42.09
74334;BME280;62753;40.394;-80.022;2023-04-06T02:29:38;97602.27;;;23.75;41.95
74334;BME280;62753;40.394;-80.022;2023-04-06T02:32:03;97608.53;;;23.53;41.97
74334;BME280;62753;40.394;-80.022;2023-04-06T02:34:28;97597.86;;;23.28;43.15
74334;BME280;62753;40.394;-80.022;2023-04-06T02:36:53;97589.72;;;23.22;43.00
74334;BME280;62753;40.394;-80.022;2023-04-06T02:39:18;97577.39;;;23.12;43.55
74334;BME280;62753;40.394;-80.022;2023-04-06T02:41:44;97587.35;;;22.76;44.53
74334;BME280;62753;40.394;-80.022;2023-04-06T02:44:09;97594.53;;;23.02;44.52
74334;BME280;62753;40.394;-80.022;2023-04-06T02:46:34;97592.43;;;22.86;44.57
74334;BME280;62753;40.394;-80.022;2023-04-06T02:48:59;97582.64;;;22.41;44.98
74334;BME280;62753;40.394;-80.022;2023-04-06T02:51:25;97592.22;;;22.68;44.88
74334;BME280;62753;40.394;-80.022;2023-04-06T02:53:50;97599.84;;;22.49;45.55
74334;BME280;62753;40.394;-80.022;2023-04-06T02:56:15;97606.41;;;22.51;45.73
74334;BME280;62753;40.394;-80.022;2023-04-06T02:58:40;97605.21;;;22.47;45.19
74334;BME280;62753;40.394;-80.022;2023-04-06T03:01:06;97566.11;;;22.64;44.83
74334;BME280;62753;40.394;-80.022;2023-04-06T03:03:31;97551.04;;;23.04;43.45
74334;BME280;62753;40.394;-80.022;2023-04-06T03:05:56;97561.38;;;22.99;44.30
74334;BME280;62753;40.394;-80.022;2023-04-06T03:08:22;97565.78;;;22.98;43.59
74334;BME280;62753;40.394;-80.022;2023-04-06T03:10:47;97570.23;;;23.53;42.20
74334;BME280;62753;40.394;-80.022;2023-04-06T03:13:12;97565.65;;;23.07;41.96
74334;BME280;62753;40.394;-80.022;2023-04-06T03:15:37;97564.00;;;23.70;41.58
74334;BME280;62753;40.394;-80.022;2023-04-06T03:18:02;97561.54;;;23.28;41.55
74334;BME280;62753;40.394;-80.022;2023-04-06T03:20:28;97562.27;;;23.88;41.26
74334;BME280;62753;40.394;-80.022;2023-04-06T03:22:53;97561.99;;;23.46;41.19
74334;BME280;62753;40.394;-80.022;2023-04-06T03:25:18;97553.82;;;23.87;40.86
74334;BME280;62753;40.394;-80.022;2023-04-06T03:27:43;97558.05;;;23.89;40.16
74334;BME280;62753;40.394;-80.022;2023-04-06T03:30:09;97560.76;;;24.10;40.18
74334;BME280;62753;40.394;-80.022;2023-04-06T03:32:34;97555.52;;;23.97;40.52
74334;BME280;62753;40.394;-80.022;2023-04-06T03:34:59;97557.39;;;23.65;41.09
74334;BME280;62753;40.394;-80.022;2023-04-06T03:37:24;97559.53;;;22.73;43.44
74334;BME280;62753;40.394;-80.022;2023-04-06T03:39:49;97555.85;;;22.10;44.80
74334;BME280;62753;40.394;-80.022;2023-04-06T03:42:15;97559.65;;;22.20;45.38
74334;BME280;62753;40.394;-80.022;2023-04-06T03:44:40;97563.72;;;21.98;45.57
74334;BME280;62753;40.394;-80.022;2023-04-06T03:47:05;97560.80;;;21.34;46.28
74334;BME280;62753;40.394;-80.022;2023-04-06T03:49:30;97570.48;;;21.79;46.34
74334;BME280;62753;40.394;-80.022;2023-04-06T03:51:56;97574.72;;;21.19;47.87
74334;BME280;62753;40.394;-80.022;2023-04-06T03:54:21;97583.21;;;20.68;49.24
74334;BME280;62753;40.394;-80.022;2023-04-06T03:56:46;97586.04;;;20.42;50.55
74334;BME280;62753;40.394;-80.022;2023-04-06T03:59:12;97577.85;;;19.57;51.19
74334;BME280;62753;40.394;-80.022;2023-04-06T04:01:37;97568.22;;;19.59;51.99
74334;BME280;62753;40.394;-80.022;2023-04-06T04:04:02;97559.11;;;19.58;51.43
74334;BME280;62753;40.394;-80.022;2023-04-06T04:06:28;97557.48;;;20.27;51.40
74334;BME280;62753;40.394;-80.022;2023-04-06T04:08:53;97544.47;;;19.55;53.04
74334;BME280;62753;40.394;-80.022;2023-04-06T04:11:19;97542.72;;;20.14;51.04
74334;BME280;62753;40.394;-80.022;2023-04-06T04:13:45;97525.30;;;20.24;50.65
74334;BME280;62753;40.394;-80.022;2023-04-06T04:16:09;97520.11;;;20.31;50.77
74334;BME280;62753;40.394;-80.022;2023-04-06T04:18:35;97526.06;;;19.66;52.64
74334;BME280;62753;40.394;-80.022;2023-04-06T04:21:01;97515.11;;;20.37;50.40
74334;BME280;62753;40.394;-80.022;2023-04-06T04:23:26;97521.29;;;20.86;49.26
74334;BME280;62753;40.394;-80.022;2023-04-06T04:25:51;97516.93;;;20.96;49.06
74334;BME280;62753;40.394;-80.022;2023-04-06T04:28:16;97509.90;;;20.24;49.98
74334;BME280;62753;40.394;-80.022;2023-04-06T04:30:41;97508.71;;;19.76;52.27
74334;BME280;62753;40.394;-80.022;2023-04-06T04:33:07;97508.78;;;19.48;52.84
74334;BME280;62753;40.394;-80.022;2023-04-06T04:35:32;97502.36;;;19.63;53.23
74334;BME280;62753;40.394;-80.022;2023-04-06T04:37:57;97499.52;;;19.11;54.62
74334;BME280;62753;40.394;-80.022;2023-04-06T04:40:23;97495.21;;;19.30;54.63
74334;BME280;62753;40.394;-80.022;2023-04-06T04:42:50;97489.14;;;18.80;55.57
74334;BME280;62753;40.394;-80.022;2023-04-06T04:45:13;97488.17;;;17.90;57.63
74334;BME280;62753;40.394;-80.022;2023-04-06T04:47:38;97485.81;;;18.33;58.49
74334;BME280;62753;40.394;-80.022;2023-04-06T04:50:05;97478.82;;;18.54;58.12
74334;BME280;62753;40.394;-80.022;2023-04-06T04:52:29;97471.22;;;17.95;58.20
74334;BME280;62753;40.394;-80.022;2023-04-06T04:54:54;97468.11;;;17.99;58.93
74334;BME280;62753;40.394;-80.022;2023-04-06T04:57:19;97458.33;;;17.39;60.20
74334;BME280;62753;40.394;-80.022;2023-04-06T04:59:45;97441.33;;;17.75;60.52
74334;BME280;62753;40.394;-80.022;2023-04-06T05:02:10;97435.54;;;18.02;59.25
74334;BME280;62753;40.394;-80.022;2023-04-06T05:04:36;97444.31;;;17.72;60.31
74334;BME280;62753;40.394;-80.022;2023-04-06T05:07:04;97445.09;;;18.13;59.23
74334;BME280;62753;40.394;-80.022;2023-04-06T05:09:26;97452.61;;;17.44;60.84
74334;BME280;62753;40.394;-80.022;2023-04-06T05:11:51;97454.32;;;17.60;60.01
74334;BME280;62753;40.394;-80.022;2023-04-06T05:14:16;97453.93;;;17.75;59.54
74334;BME280;62753;40.394;-80.022;2023-04-06T05:16:42;97455.29;;;18.20;59.14
74334;BME280;62753;40.394;-80.022;2023-04-06T05:19:07;97459.34;;;18.50;56.80
74334;BME280;62753;40.394;-80.022;2023-04-06T05:21:32;97460.65;;;17.96;58.34
74334;BME280;62753;40.394;-80.022;2023-04-06T05:23:58;97457.19;;;17.94;58.48
74334;BME280;62753;40.394;-80.022;2023-04-06T05:26:23;97448.47;;;18.15;58.70
74334;BME280;62753;40.394;-80.022;2023-04-06T05:28:48;97446.79;;;17.19;60.80
74334;BME280;62753;40.394;-80.022;2023-04-06T05:31:13;97442.13;;;17.39;60.55
74334;BME280;62753;40.394;-80.022;2023-04-06T05:33:38;97442.46;;;17.67;61.36
74334;BME280;62753;40.394;-80.022;2023-04-06T05:36:05;97447.59;;;17.15;61.96
74334;BME280;62753;40.394;-80.022;2023-04-06T05:38:29;97442.42;;;17.01;62.20
74334;BME280;62753;40.394;-80.022;2023-04-06T05:40:54;97449.79;;;17.35;61.93
74334;BME280;62753;40.394;-80.022;2023-04-06T05:43:19;97467.90;;;17.21;62.42
74334;BME280;62753;40.394;-80.022;2023-04-06T05:45:45;97473.69;;;17.69;60.71
74334;BME280;62753;40.394;-80.022;2023-04-06T05:48:10;97462.85;;;17.75;60.31
74334;BME280;62753;40.394;-80.022;2023-04-06T05:50:35;97465.19;;;17.44;60.49
74334;BME280;62753;40.394;-80.022;2023-04-06T05:53:00;97469.11;;;18.26;57.88
74334;BME280;62753;40.394;-80.022;2023-04-06T05:55:26;97485.19;;;18.14;58.42
74334;BME280;62753;40.394;-80.022;2023-04-06T05:57:51;97497.92;;;19.11;54.45
74334;BME280;62753;40.394;-80.022;2023-04-06T06:00:17;97525.70;;;20.47;50.88
74334;BME280;62753;40.394;-80.022;2023-04-06T06:02:41;97529.25;;;20.89;48.24
74334;BME280;62753;40.394;-80.022;2023-04-06T06:05:08;97527.94;;;21.41;47.02
74334;BME280;62753;40.394;-80.022;2023-04-06T06:07:32;97524.10;;;21.98;44.94
74334;BME280;62753;40.394;-80.022;2023-04-06T06:09:57;97531.44;;;22.33;43.77
74334;BME280;62753;40.394;-80.022;2023-04-06T06:12:22;97533.52;;;22.69;43.00
74334;BME280;62753;40.394;-80.022;2023-04-06T06:14:48;97535.47;;;22.35;43.52
74334;BME280;62753;40.394;-80.022;2023-04-06T06:17:13;97536.86;;;21.88;43.80
74334;BME280;62753;40.394;-80.022;2023-04-06T06:19:38;97539.58;;;22.44;43.11
74334;BME280;62753;40.394;-80.022;2023-04-06T06:22:04;97535.35;;;22.72;42.21
74334;BME280;62753;40.394;-80.022;2023-04-06T06:24:29;97532.13;;;22.73;41.90
74334;BME280;62753;40.394;-80.022;2023-04-06T06:26:54;97538.31;;;22.73;42.08
74334;BME280;62753;40.394;-80.022;2023-04-06T06:29:19;97537.31;;;22.82;41.47
74334;BME280;62753;40.394;-80.022;2023-04-06T06:31:44;97537.32;;;22.79;41.03
74334;BME280;62753;40.394;-80.022;2023-04-06T06:34:10;97536.84;;;23.02;40.93
74334;BME280;62753;40.394;-80.022;2023-04-06T06:36:35;97536.79;;;23.13;40.05
74334;BME280;62753;40.394;-80.022;2023-04-06T06:39:00;97547.19;;;23.41;39.82
74334;BME280;62753;40.394;-80.022;2023-04-06T06:41:26;97560.26;;;23.55;40.01
74334;BME280;62753;40.394;-80.022;2023-04-06T06:43:50;97571.95;;;23.00;40.18
74334;BME280;62753;40.394;-80.022;2023-04-06T06:46:16;97574.83;;;23.29;40.22
74334;BME280;62753;40.394;-80.022;2023-04-06T06:48:41;97575.00;;;22.10;42.31
74334;BME280;62753;40.394;-80.022;2023-04-06T06:51:06;97580.84;;;22.99;41.74
74334;BME280;62753;40.394;-80.022;2023-04-06T06:53:32;97579.55;;;22.45;41.81
74334;BME280;62753;40.394;-80.022;2023-04-06T06:55:57;97577.37;;;21.74;43.92
74334;BME280;62753;40.394;-80.022;2023-04-06T06:58:22;97573.12;;;20.79;45.86
74334;BME280;62753;40.394;-80.022;2023-04-06T07:00:47;97573.39;;;20.53;46.45
74334;BME280;62753;40.394;-80.022;2023-04-06T07:03:13;97573.68;;;22.05;43.93
74334;BME280;62753;40.394;-80.022;2023-04-06T07:05:38;97570.08;;;22.36;42.68
74334;BME280;62753;40.394;-80.022;2023-04-06T07:08:04;97569.14;;;22.66;41.52
74334;BME280;62753;40.394;-80.022;2023-04-06T07:10:28;97565.95;;;22.40;42.29
74334;BME280;62753;40.394;-80.022;2023-04-06T07:12:54;97569.57;;;21.70;43.43
74334;BME280;62753;40.394;-80.022;2023-04-06T07:15:19;97572.60;;;22.70;41.63
74334;BME280;62753;40.394;-80.022;2023-04-06T07:17:44;97575.93;;;22.74;41.11
74334;BME280;62753;40.394;-80.022;2023-04-06T07:20:10;97581.90;;;22.94;41.10
74334;BME280;62753;40.394;-80.022;2023-04-06T07:22:34;97577.66;;;22.98;40.34
74334;BME280;62753;40.394;-80.022;2023-04-06T07:25:00;97574.75;;;23.08;39.74
74334;BME280;62753;40.394;-80.022;2023-04-06T07:27:25;97574.62;;;22.93;40.65
74334;BME280;62753;40.394;-80.022;2023-04-06T07:29:50;97575.85;;;23.71;39.31
74334;BME280;62753;40.394;-80.022;2023-04-06T07:32:15;97569.73;;;23.57;38.96
74334;BME280;62753;40.394;-80.022;2023-04-06T07:34:41;97573.30;;;23.58;38.89
74334;BME280;62753;40.394;-80.022;2023-04-06T07:37:06;97578.96;;;24.32;37.75
74334;BME280;62753;40.394;-80.022;2023-04-06T07:39:31;97583.45;;;24.00;38.42
74334;BME280;62753;40.394;-80.022;2023-04-06T07:41:57;97581.61;;;23.94;38.29
74334;BME280;62753;40.394;-80.022;2023-04-06T07:44:22;97576.96;;;24.15;38.15
74334;BME280;62753;40.394;-80.022;2023-04-06T07:46:47;97570.98;;;23.71;38.34
74334;BME280;62753;40.394;-80.022;2023-04-06T07:49:12;97574.49;;;24.02;38.33
74334;BME280;62753;40.394;-80.022;2023-04-06T07:51:38;97577.80;;;24.02;38.26
74334;BME280;62753;40.394;-80.022;2023-04-06T07:54:03;97569.45;;;23.62;38.22
74334;BME280;62753;40.394;-80.022;2023-04-06T07:56:29;97568.99;;;24.21;38.16
74334;BME280;62753;40.394;-80.022;2023-04-06T07:58:54;97569.92;;;23.84;37.88
74334;BME280;62753;40.394;-80.022;2023-04-06T08:01:19;97568.00;;;23.11;39.21
74334;BME280;62753;40.394;-80.022;2023-04-06T08:03:44;97566.11;;;23.36;39.40
74334;BME280;62753;40.394;-80.022;2023-04-06T08:06:09;97563.75;;;22.94;39.75
74334;BME280;62753;40.394;-80.022;2023-04-06T08:08:35;97562.30;;;23.48;38.89
74334;BME280;62753;40.394;-80.022;2023-04-06T08:11:00;97562.26;;;23.57;39.02
74334;BME280;62753;40.394;-80.022;2023-04-06T08:13:25;97561.47;;;23.31;39.07
74334;BME280;62753;40.394;-80.022;2023-04-06T08:15:50;97565.60;;;23.23;39.57
74334;BME280;62753;40.394;-80.022;2023-04-06T08:18:16;97561.49;;;23.64;39.33
74334;BME280;62753;40.394;-80.022;2023-04-06T08:20:41;97551.94;;;23.81;38.99
74334;BME280;62753;40.394;-80.022;2023-04-06T08:23:06;97550.16;;;23.96;38.40
74334;BME280;62753;40.394;-80.022;2023-04-06T08:25:31;97550.88;;;23.78;39.08
74334;BME280;62753;40.394;-80.022;2023-04-06T08:27:56;97552.67;;;23.46;39.24
74334;BME280;62753;40.394;-80.022;2023-04-06T08:30:22;97556.10;;;23.37;39.07
74334;BME280;62753;40.394;-80.022;2023-04-06T08:32:47;97558.36;;;22.99;40.11
74334;BME280;62753;40.394;-80.022;2023-04-06T08:35:13;97555.82;;;23.42;39.20
74334;BME280;62753;40.394;-80.022;2023-04-06T08:37:38;97557.66;;;23.05;40.01
74334;BME280;62753;40.394;-80.022;2023-04-06T08:40:03;97557.85;;;23.19;39.86
74334;BME280;62753;40.394;-80.022;2023-04-06T08:42:32;97563.69;;;23.43;39.61
74334;BME280;62753;40.394;-80.022;2023-04-06T08:44:54;97561.94;;;22.71;40.31
74334;BME280;62753;40.394;-80.022;2023-04-06T08:47:19;97555.11;;;22.94;40.55
74334;BME280;62753;40.394;-80.022;2023-04-06T08:49:45;97555.07;;;22.40;40.92
74334;BME280;62753;40.394;-80.022;2023-04-06T08:52:10;97550.53;;;22.38;41.18
74334;BME280;62753;40.394;-80.022;2023-04-06T08:54:34;97549.54;;;22.93;40.15
74334;BME280;62753;40.394;-80.022;2023-04-06T08:57:00;97563.14;;;23.74;39.62
74334;BME280;62753;40.394;-80.022;2023-04-06T08:59:25;97556.59;;;23.02;40.10
74334;BME280;62753;40.394;-80.022;2023-04-06T09:01:50;97556.37;;;23.07;39.50
74334;BME280;62753;40.394;-80.022;2023-04-06T09:04:15;97557.37;;;23.29;39.33
74334;BME280;62753;40.394;-80.022;2023-04-06T09:06:41;97550.84;;;23.28;39.55
74334;BME280;62753;40.394;-80.022;2023-04-06T09:09:06;97546.02;;;23.02;39.31
74334;BME280;62753;40.394;-80.022;2023-04-06T09:11:44;97548.26;;;23.37;39.07
74334;BME280;62753;40.394;-80.022;2023-04-06T09:13:56;97551.71;;;23.47;38.92
74334;BME280;62753;40.394;-80.022;2023-04-06T09:16:22;97559.79;;;23.68;38.26
74334;BME280;62753;40.394;-80.022;2023-04-06T09:18:47;97566.44;;;23.60;38.20
74334;BME280;62753;40.394;-80.022;2023-04-06T09:21:12;97565.38;;;23.66;38.20
74334;BME280;62753;40.394;-80.022;2023-04-06T09:23:38;97561.96;;;23.42;38.80
74334;BME280;62753;40.394;-80.022;2023-04-06T09:26:06;97565.23;;;22.64;40.11
74334;BME280;62753;40.394;-80.022;2023-04-06T09:28:28;97551.80;;;22.91;40.29
74334;BME280;62753;40.394;-80.022;2023-04-06T09:30:53;97547.56;;;22.96;39.67
74334;BME280;62753;40.394;-80.022;2023-04-06T09:33:23;97546.43;;;23.01;39.89
74334;BME280;62753;40.394;-80.022;2023-04-06T09:35:49;97556.97;;;22.65;39.86
74334;BME280;62753;40.394;-80.022;2023-04-06T09:38:11;97563.05;;;22.89;40.56
74334;BME280;62753;40.394;-80.022;2023-04-06T09:40:34;97566.24;;;22.68;40.65
74334;BME280;62753;40.394;-80.022;2023-04-06T09:42:59;97568.45;;;22.68;40.80
74334;BME280;62753;40.394;-80.022;2023-04-06T09:45:24;97569.40;;;22.85;40.07
74334;BME280;62753;40.394;-80.022;2023-04-06T09:47:49;97571.07;;;22.11;41.18
74334;BME280;62753;40.394;-80.022;2023-04-06T09:50:15;97568.19;;;21.47;43.11
74334;BME280;62753;40.394;-80.022;2023-04-06T09:52:46;97581.93;;;22.24;42.34
74334;BME280;62753;40.394;-80.022;2023-04-06T09:55:06;97585.72;;;21.96;42.41
74334;BME280;62753;40.394;-80.022;2023-04-06T09:57:35;97583.14;;;22.10;42.34
74334;BME280;62753;40.394;-80.022;2023-04-06T10:00:01;97580.95;;;22.32;41.56
74334;BME280;62753;40.394;-80.022;2023-04-06T10:02:27;97581.94;;;21.93;42.35
74334;BME280;62753;40.394;-80.022;2023-04-06T10:04:53;97585.58;;;22.35;41.89
74334;BME280;62753;40.394;-80.022;2023-04-06T10:07:11;97595.95;;;22.10;41.62
74334;BME280;62753;40.394;-80.022;2023-04-06T10:09:37;97598.89;;;22.57;41.01
74334;BME280;62753;40.394;-80.022;2023-04-06T10:12:03;97610.68;;;22.91;41.00
74334;BME280;62753;40.394;-80.022;2023-04-06T10:14:27;97621.28;;;22.96;40.05
74334;BME280;62753;40.394;-80.022;2023-04-06T10:16:52;97625.39;;;22.77;40.00
74334;BME280;62753;40.394;-80.022;2023-04-06T10:19:24;97631.65;;;22.75;39.69
74334;BME280;62753;40.394;-80.022;2023-04-06T10:21:45;97631.83;;;22.60;40.00
74334;BME280;62753;40.394;-80.022;2023-04-06T10:24:09;97624.48;;;22.45;40.38
74334;BME280;62753;40.394;-80.022;2023-04-06T10:26:33;97620.13;;;22.48;40.84
74334;BME280;62753;40.394;-80.022;2023-04-06T10:29:03;97619.91;;;22.45;40.53
74334;BME280;62753;40.394;-80.022;2023-04-06T10:31:26;97618.26;;;21.88;41.96
74334;BME280;62753;40.394;-80.022;2023-04-06T10:33:54;97615.78;;;21.30;43.75
74334;BME280;62753;40.394;-80.022;2023-04-06T10:36:21;97622.76;;;21.73;43.19
74334;BME280;62753;40.394;-80.022;2023-04-06T10:38:41;97631.53;;;22.49;41.89
74334;BME280;62753;40.394;-80.022;2023-04-06T10:41:05;97631.08;;;22.07;42.53
74334;BME280;62753;40.394;-80.022;2023-04-06T10:43:34;97635.69;;;21.94;42.39
74334;BME280;62753;40.394;-80.022;2023-04-06T10:45:56;97628.68;;;22.65;41.58
74334;BME280;62753;40.394;-80.022;2023-04-06T10:48:20;97619.11;;;22.03;42.27
74334;BME280;62753;40.394;-80.022;2023-04-06T10:50:48;97624.02;;;21.76;43.08
74334;BME280;62753;40.394;-80.022;2023-04-06T10:53:11;97631.71;;;21.23;44.04
74334;BME280;62753;40.394;-80.022;2023-04-06T10:55:39;97638.40;;;21.51;43.54
74334;BME280;62753;40.394;-80.022;2023-04-06T10:58:01;97640.74;;;21.57;43.29
74334;BME280;62753;40.394;-80.022;2023-04-06T11:00:26;97645.35;;;22.28;42.09
74334;BME280;62753;40.394;-80.022;2023-04-06T11:02:59;97651.40;;;22.56;40.73
74334;BME280;62753;40.394;-80.022;2023-04-06T11:05:17;97664.95;;;22.59;41.51
74334;BME280;62753;40.394;-80.022;2023-04-06T11:07:43;97664.98;;;21.88;42.50
74334;BME280;62753;40.394;-80.022;2023-04-06T11:10:09;97675.25;;;22.00;42.83
74334;BME280;62753;40.394;-80.022;2023-04-06T11:12:33;97671.43;;;21.80;42.80
74334;BME280;62753;40.394;-80.022;2023-04-06T11:15:00;97683.48;;;22.32;41.97
74334;BME280;62753;40.394;-80.022;2023-04-06T11:17:28;97688.79;;;22.71;41.29
74334;BME280;62753;40.394;-80.022;2023-04-06T11:19:49;97692.41;;;22.21;42.15
74334;BME280;62753;40.394;-80.022;2023-04-06T11:22:14;97692.32;;;21.51;43.67
74334;BME280;62753;40.394;-80.022;2023-04-06T11:24:40;97699.85;;;21.92;43.61
74334;BME280;62753;40.394;-80.022;2023-04-06T11:27:06;97700.49;;;22.42;42.64
74334;BME280;62753;40.394;-80.022;2023-04-06T11:29:31;97697.71;;;21.89;43.70
74334;BME280;62753;40.394;-80.022;2023-04-06T11:32:00;97705.81;;;20.61;46.42
74334;BME280;62753;40.394;-80.022;2023-04-06T11:34:23;97709.05;;;20.82;47.16
74334;BME280;62753;40.394;-80.022;2023-04-06T11:36:48;97713.01;;;21.35;45.63
74334;BME280;62753;40.394;-80.022;2023-04-06T11:39:12;97715.92;;;21.02;46.97
74334;BME280;62753;40.394;-80.022;2023-04-06T11:41:37;97720.51;;;20.51;47.92
74334;BME280;62753;40.394;-80.022;2023-04-06T11:44:03;97728.24;;;19.22;47.23
74334;BME280;62753;40.394;-80.022;2023-04-06T11:46:28;97737.84;;;18.97;47.82
74334;BME280;62753;40.394;-80.022;2023-04-06T11:48:58;97758.88;;;18.96;48.32
74334;BME280;62753;40.394;-80.022;2023-04-06T11:51:23;97771.24;;;19.15;47.43
74334;BME280;62753;40.394;-80.022;2023-04-06T11:53:44;97788.85;;;18.62;47.82
74334;BME280;62753;40.394;-80.022;2023-04-06T11:56:08;97794.43;;;18.51;46.95
74334;BME280;62753;40.394;-80.022;2023-04-06T11:58:34;97798.46;;;19.01;46.10
74334;BME280;62753;40.394;-80.022;2023-04-06T12:01:04;97792.19;;;17.94;47.20
74334;BME280;62753;40.394;-80.022;2023-04-06T12:03:25;97795.19;;;18.01;47.04
74334;BME280;62753;40.394;-80.022;2023-04-06T12:05:50;97810.56;;;17.31;46.84
74334;BME280;62753;40.394;-80.022;2023-04-06T12:08:16;97807.70;;;17.15;47.44
74334;BME280;62753;40.394;-80.022;2023-04-06T12:10:41;97826.06;;;16.94;47.12
74334;BME280;62753;40.394;-80.022;2023-04-06T12:13:06;97826.59;;;16.64;47.33
74334;BME280;62753;40.394;-80.022;2023-04-06T12:15:31;97842.69;;;16.60;46.73
74334;BME280;62753;40.394;-80.022;2023-04-06T12:17:57;97828.82;;;16.94;44.46
74334;BME280;62753;40.394;-80.022;2023-04-06T12:20:22;97837.11;;;17.22;45.09
74334;BME280;62753;40.394;-80.022;2023-04-06T12:22:47;97848.01;;;17.27;44.42
74334;BME280;62753;40.394;-80.022;2023-04-06T12:25:12;97861.14;;;16.77;45.00
74334;BME280;62753;40.394;-80.022;2023-04-06T12:27:38;97879.86;;;16.64;45.51
74334;BME280;62753;40.394;-80.022;2023-04-06T12:30:04;97873.40;;;16.71;45.91